Time;durP1;ratioP1;P1;durP2;ratioP2;P2;SDS_P1;SDS_P2;PMS_P1;PMS_P2;Temp;Humidity;BMP_temperature;BMP_pressure;BME280_temperature;BME280_humidity;BME280_pressure;Samples;Min_cycle;Max_cycle;Signal;HPM_P1;HPM_P2
2024/04/09 00:02:15;;;;;;;18.98;5.43;;;12.00;99.90;;;;;;5541451;26;19985;-45
2024/04/09 00:04:41;;;;;;;16.60;4.93;;;12.00;99.90;;;;;;5544604;26;19997;-45
2024/04/09 00:07:08;;;;;;;18.63;5.55;;;12.10;99.90;;;;;;5545020;26;19985;-46
2024/04/09 00:09:42;;;;;;;14.23;5.75;;;12.10;99.90;;;;;;5544936;25;19985;-47
2024/04/09 00:12:11;;;;;;;17.83;5.18;;;12.10;99.90;;;;;;5545302;25;19996;-47
2024/04/09 00:14:37;;;;;;;18.58;5.97;;;12.10;99.90;;;;;;5545149;25;19985;-47
2024/04/09 00:17:05;;;;;;;19.45;5.47;;;12.10;99.90;;;;;;5545101;25;20039;-47
2024/04/09 00:19:31;;;;;;;14.70;5.20;;;12.10;99.90;;;;;;5544714;25;19994;-46
2024/04/09 00:21:59;;;;;;;17.02;6.20;;;12.10;99.90;;;;;;5544653;25;20163;-47
2024/04/09 00:24:25;;;;;;;13.10;6.10;;;12.10;99.90;;;;;;5544669;25;19986;-47
2024/04/09 00:26:51;;;;;;;18.58;7.20;;;12.00;99.90;;;;;;5543903;26;19985;-45
2024/04/09 00:29:17;;;;;;;20.13;7.75;;;11.90;99.90;;;;;;5544907;25;20042;-47
2024/04/09 00:31:43;;;;;;;19.27;7.68;;;11.90;99.90;;;;;;5544636;25;20051;-44
2024/04/09 00:34:10;;;;;;;17.30;6.93;;;11.90;99.90;;;;;;5544730;26;20212;-43
2024/04/09 00:36:36;;;;;;;18.55;7.45;;;11.90;99.90;;;;;;5544917;25;19989;-45
2024/04/09 00:39:02;;;;;;;17.38;7.07;;;11.90;99.90;;;;;;5544814;25;19986;-43
2024/04/09 00:41:28;;;;;;;14.07;5.15;;;11.90;99.90;;;;;;5544650;25;19993;-43
2024/04/09 00:43:53;;;;;;;13.57;3.60;;;11.80;99.90;;;;;;5544325;26;20204;-46
2024/04/09 00:46:19;;;;;;;16.88;3.05;;;11.70;99.90;;;;;;5544558;26;20110;-47
2024/04/09 00:48:45;;;;;;;16.52;2.83;;;11.60;99.90;;;;;;5544528;25;20167;-43
2024/04/09 00:51:12;;;;;;;10.88;2.67;;;11.50;99.90;;;;;;5543788;26;20013;-44
2024/04/09 00:53:38;;;;;;;11.82;2.75;;;11.40;99.90;;;;;;5513030;26;20017;-43
2024/04/09 00:56:05;;;;;;;15.70;2.80;;;11.30;99.90;;;;;;5544287;26;19990;-43
2024/04/09 00:58:30;;;;;;;9.88;2.28;;;11.20;99.90;;;;;;5544455;25;19985;-43
2024/04/09 01:00:58;;;;;;;12.48;2.92;;;11.10;99.90;;;;;;5544458;26;20093;-44
2024/04/09 01:03:23;;;;;;;13.52;2.45;;;11.00;99.90;;;;;;5543642;26;19985;-43
2024/04/09 01:05:49;;;;;;;13.55;2.33;;;10.90;99.90;;;;;;5543936;26;19996;-43
2024/04/09 01:08:14;;;;;;;18.10;2.13;;;10.90;99.90;;;;;;5544390;25;20038;-43
2024/04/09 01:10:40;;;;;;;10.75;1.92;;;10.80;99.90;;;;;;5544380;26;19986;-43
2024/04/09 01:13:06;;;;;;;16.05;2.55;;;10.70;99.90;;;;;;5544191;26;19996;-43
2024/04/09 01:15:32;;;;;;;15.48;2.95;;;10.60;99.90;;;;;;5543257;26;19997;-44
2024/04/09 01:17:58;;;;;;;13.05;2.05;;;10.60;99.90;;;;;;5544109;25;20018;-44
2024/04/09 01:20:23;;;;;;;13.40;2.13;;;10.50;99.90;;;;;;5543900;25;19997;-45
2024/04/09 01:22:50;;;;;;;11.40;2.03;;;10.40;99.90;;;;;;5544070;26;20074;-44
2024/04/09 01:25:15;;;;;;;10.90;2.33;;;10.30;99.90;;;;;;5543791;25;20045;-46
2024/04/09 01:27:41;;;;;;;13.20;2.33;;;10.30;99.90;;;;;;5544076;26;20094;-46
2024/04/09 01:30:12;;;;;;;14.60;1.95;;;10.30;99.90;;;;;;5543970;26;20040;-44
2024/04/09 01:32:39;;;;;;;13.02;2.42;;;10.20;99.90;;;;;;5542881;26;20077;-45
2024/04/09 01:35:06;;;;;;;11.70;2.00;;;10.20;99.90;;;;;;5543890;25;19986;-47
2024/04/09 01:37:35;;;;;;;13.38;1.80;;;10.10;99.90;;;;;;5543509;25;20192;-45
2024/04/09 01:40:02;;;;;;;8.20;1.77;;;10.00;99.90;;;;;;5543867;25;20050;-45
2024/04/09 01:42:28;;;;;;;11.20;2.28;;;9.90;99.90;;;;;;5543474;25;19985;-45
2024/04/09 01:44:53;;;;;;;13.93;2.33;;;9.90;99.90;;;;;;5543726;26;20185;-46
2024/04/09 01:47:19;;;;;;;10.80;2.28;;;9.80;99.90;;;;;;5543651;26;19997;-45
2024/04/09 01:49:45;;;;;;;10.70;2.00;;;9.70;99.90;;;;;;5543356;26;20031;-45
2024/04/09 01:52:11;;;;;;;11.73;1.90;;;9.70;99.90;;;;;;5543627;25;20034;-43
2024/04/09 01:54:37;;;;;;;14.45;2.22;;;9.70;99.90;;;;;;5543358;25;20170;-45
2024/04/09 01:57:02;;;;;;;16.27;2.03;;;9.60;99.90;;;;;;5543771;25;19993;-45
2024/04/09 01:59:30;;;;;;;12.77;1.75;;;9.60;99.90;;;;;;5543553;26;19986;-46
2024/04/09 02:01:56;;;;;;;14.13;2.13;;;9.50;99.90;;;;;;5543087;25;20046;-43
2024/04/09 02:04:22;;;;;;;13.60;2.15;;;9.50;99.90;;;;;;5543610;25;19998;-46
2024/04/09 02:06:48;;;;;;;10.77;2.47;;;9.50;99.90;;;;;;5543532;25;20069;-46
2024/04/09 02:09:14;;;;;;;11.90;2.47;;;9.40;99.90;;;;;;5543335;25;20013;-44
2024/04/09 02:11:40;;;;;;;11.13;2.15;;;9.40;99.90;;;;;;5542712;26;20048;-45
2024/04/09 02:14:05;;;;;;;12.98;2.75;;;9.30;99.90;;;;;;5543271;25;20156;-43
2024/04/09 02:16:31;;;;;;;10.35;1.80;;;9.30;99.90;;;;;;5543319;26;19992;-45
2024/04/09 02:18:57;;;;;;;8.98;1.95;;;9.20;99.90;;;;;;5543308;25;19997;-44
2024/04/09 02:21:23;;;;;;;18.65;2.42;;;9.20;99.90;;;;;;5543263;26;20001;-43
2024/04/09 02:23:51;;;;;;;9.60;1.48;;;9.10;99.90;;;;;;5542710;26;19989;-46
2024/04/09 02:26:20;;;;;;;8.98;1.95;;;9.10;99.90;;;;;;5542733;25;20001;-44
2024/04/09 02:28:46;;;;;;;13.40;2.25;;;9.00;99.90;;;;;;5543046;25;20172;-46
2024/04/09 02:31:12;;;;;;;19.90;2.78;;;9.00;99.90;;;;;;5543199;26;20037;-45
2024/04/09 02:33:38;;;;;;;11.45;1.98;;;9.00;99.90;;;;;;5542870;25;19997;-46
2024/04/09 02:36:05;;;;;;;12.68;2.53;;;8.90;99.90;;;;;;5543035;26;20006;-46
2024/04/09 02:38:36;;;;;;;11.98;2.30;;;8.90;99.90;;;;;;5542862;25;20000;-45
2024/04/09 02:41:05;;;;;;;16.80;2.80;;;8.80;99.90;;;;;;5542747;25;20059;-46
2024/04/09 02:43:31;;;;;;;11.27;2.10;;;8.80;99.90;;;;;;5542915;25;19989;-43
2024/04/09 02:45:57;;;;;;;15.40;2.80;;;8.80;99.90;;;;;;5542484;26;20035;-43
2024/04/09 02:48:22;;;;;;;13.85;3.25;;;8.80;99.90;;;;;;5541769;26;19985;-46
2024/04/09 02:50:53;;;;;;;17.25;3.22;;;8.70;99.90;;;;;;5541789;26;20005;-43
2024/04/09 02:53:18;;;;;;;15.05;2.38;;;8.70;99.90;;;;;;5542661;25;20026;-45
2024/04/09 02:55:44;;;;;;;16.70;3.20;;;8.80;99.90;;;;;;5542530;26;19986;-45
2024/04/09 02:58:12;;;;;;;13.73;2.85;;;8.80;99.90;;;;;;5541956;26;19985;-44
2024/04/09 03:00:38;;;;;;;12.52;2.40;;;8.70;99.90;;;;;;5542351;25;19993;-46
2024/04/09 03:03:04;;;;;;;12.10;2.67;;;8.60;99.90;;;;;;5541747;26;20039;-44
2024/04/09 03:05:31;;;;;;;10.38;2.60;;;8.60;99.90;;;;;;5541705;26;19981;-44
2024/04/09 03:07:56;;;;;;;12.20;2.20;;;8.60;99.90;;;;;;5542110;25;19989;-43
2024/04/09 03:10:22;;;;;;;12.27;2.55;;;8.60;99.90;;;;;;5542069;26;19985;-43
2024/04/09 03:12:48;;;;;;;13.05;3.40;;;8.60;99.90;;;;;;5542263;26;19986;-44
2024/04/09 03:15:14;;;;;;;10.77;2.85;;;8.60;99.90;;;;;;5542374;25;19989;-43
2024/04/09 03:17:43;;;;;;;15.63;3.00;;;8.60;99.90;;;;;;5541190;26;20039;-44
2024/04/09 03:20:12;;;;;;;16.98;3.10;;;8.60;99.90;;;;;;5542255;26;20170;-44
2024/04/09 03:22:38;;;;;;;9.38;1.92;;;8.60;99.90;;;;;;5542289;25;19989;-45
2024/04/09 03:25:05;;;;;;;12.07;2.30;;;8.60;99.90;;;;;;5541986;26;20040;-43
2024/04/09 03:27:34;;;;;;;7.38;2.05;;;8.50;99.90;;;;;;5542106;25;20006;-43
2024/04/09 03:30:00;;;;;;;13.73;2.80;;;8.50;99.90;;;;;;5541085;26;20105;-43
2024/04/09 03:32:26;;;;;;;10.18;2.38;;;8.50;99.90;;;;;;5541387;26;19986;-46
2024/04/09 03:34:52;;;;;;;10.63;2.35;;;8.50;99.90;;;;;;5542173;25;19985;-45
2024/04/09 03:37:18;;;;;;;8.75;2.30;;;8.50;99.90;;;;;;5541904;26;19990;-46
2024/04/09 03:39:43;;;;;;;11.05;2.15;;;8.50;99.90;;;;;;5539759;26;19990;-43
2024/04/09 03:42:09;;;;;;;10.85;2.10;;;8.40;99.90;;;;;;5541877;26;19990;-43
2024/04/09 03:44:34;;;;;;;10.75;2.42;;;8.30;99.90;;;;;;5541817;26;19989;-46
2024/04/09 03:47:04;;;;;;;17.48;2.53;;;8.30;99.90;;;;;;5541635;26;19990;-44
2024/04/09 03:49:38;;;;;;;10.02;2.00;;;8.30;99.90;;;;;;5541726;25;19986;-44
2024/04/09 03:52:05;;;;;;;11.90;2.05;;;8.30;99.90;;;;;;5541350;26;20171;-46
2024/04/09 03:54:31;;;;;;;12.38;2.58;;;8.20;99.90;;;;;;5540961;26;20046;-43
2024/04/09 03:56:59;;;;;;;9.00;2.40;;;8.20;99.90;;;;;;5540834;26;19993;-44
2024/04/09 03:59:24;;;;;;;10.15;2.30;;;8.20;99.90;;;;;;5541617;25;20168;-45
2024/04/09 04:01:50;;;;;;;7.43;1.92;;;8.10;99.90;;;;;;5541139;26;19993;-45
2024/04/09 04:04:17;;;;;;;11.18;2.50;;;8.10;99.90;;;;;;5541597;26;20152;-44
2024/04/09 04:06:43;;;;;;;8.70;1.90;;;8.10;99.90;;;;;;5541497;25;20042;-43
2024/04/09 04:09:08;;;;;;;12.48;1.90;;;8.10;99.90;;;;;;5541352;26;20017;-44
2024/04/09 04:11:35;;;;;;;7.18;1.35;;;8.00;99.90;;;;;;5541033;26;20001;-43
2024/04/09 04:14:01;;;;;;;6.78;1.73;;;8.00;99.90;;;;;;5540095;26;19996;-45
2024/04/09 04:16:27;;;;;;;11.95;1.60;;;8.00;99.90;;;;;;5541297;25;20005;-43
2024/04/09 04:18:52;;;;;;;7.65;1.50;;;8.00;99.90;;;;;;5541297;26;19985;-43
2024/04/09 04:21:21;;;;;;;9.18;1.38;;;8.00;99.90;;;;;;5540957;26;19985;-46
2024/04/09 04:23:47;;;;;;;10.02;1.65;;;7.90;99.90;;;;;;5540853;25;20014;-46
2024/04/09 04:26:17;;;;;;;10.27;1.70;;;7.90;99.90;;;;;;5540924;25;19985;-43
2024/04/09 04:28:44;;;;;;;6.90;1.70;;;7.90;99.90;;;;;;5541147;25;20001;-43
2024/04/09 04:31:11;;;;;;;9.55;1.60;;;7.90;99.90;;;;;;5541120;25;19992;-45
2024/04/09 04:33:40;;;;;;;6.72;1.85;;;8.00;99.90;;;;;;5539886;26;19986;-44
2024/04/09 04:36:06;;;;;;;6.90;2.43;;;8.00;99.90;;;;;;5509477;26;20164;-43
2024/04/09 04:38:32;;;;;;;8.98;1.65;;;8.00;99.90;;;;;;5541046;25;19997;-43
2024/04/09 04:40:57;;;;;;;5.03;1.13;;;7.90;99.90;;;;;;5540842;26;20052;-46
2024/04/09 04:43:23;;;;;;;4.93;1.30;;;7.90;99.90;;;;;;5539927;26;19989;-43
2024/04/09 04:45:49;;;;;;;7.97;1.77;;;7.90;99.90;;;;;;5540338;25;19986;-45
2024/04/09 04:48:16;;;;;;;10.35;1.85;;;7.90;99.90;;;;;;5540388;26;20039;-43
2024/04/09 04:50:42;;;;;;;10.25;2.03;;;8.00;99.90;;;;;;5541038;26;19985;-46
2024/04/09 04:53:08;;;;;;;5.97;2.10;;;7.90;99.90;;;;;;5544513;25;19986;-45
2024/04/09 04:55:33;;;;;;;7.45;1.70;;;7.90;99.90;;;;;;5544089;26;19988;-43
2024/04/09 04:58:00;;;;;;;8.65;1.88;;;7.90;99.90;;;;;;5544002;26;20081;-44
2024/04/09 05:00:26;;;;;;;10.55;2.03;;;7.90;99.90;;;;;;5544342;25;20163;-44
2024/04/09 05:02:51;;;;;;;13.88;2.05;;;8.00;99.90;;;;;;5544079;25;19985;-46
2024/04/09 05:05:17;;;;;;;5.93;1.55;;;8.00;99.90;;;;;;5543485;26;19997;-44
2024/04/09 05:07:43;;;;;;;11.27;2.08;;;8.00;99.90;;;;;;5543829;26;19990;-45
2024/04/09 05:10:15;;;;;;;8.70;1.65;;;8.00;99.90;;;;;;5544173;26;19997;-43
2024/04/09 05:12:42;;;;;;;7.85;1.70;;;8.00;99.90;;;;;;5544002;25;19996;-45
2024/04/09 05:15:12;;;;;;;11.70;2.85;;;8.00;99.90;;;;;;5544135;26;19985;-45
2024/04/09 05:17:38;;;;;;;11.73;1.90;;;8.00;99.90;;;;;;5544128;25;19992;-45
2024/04/09 05:20:11;;;;;;;5.57;1.55;;;8.10;99.90;;;;;;5543807;25;19989;-43
2024/04/09 05:22:40;;;;;;;8.50;1.67;;;8.10;99.90;;;;;;5543656;25;19989;-46
2024/04/09 05:25:06;;;;;;;7.80;1.48;;;8.10;99.90;;;;;;5543763;25;19989;-45
2024/04/09 05:27:33;;;;;;;6.95;1.42;;;8.00;99.90;;;;;;5544105;25;19993;-46
2024/04/09 05:29:58;;;;;;;7.25;1.77;;;8.10;99.90;;;;;;5543433;25;20052;-46
2024/04/09 05:32:24;;;;;;;8.07;1.88;;;8.10;99.90;;;;;;5543734;26;19989;-44
2024/04/09 05:34:50;;;;;;;8.55;1.73;;;8.10;99.90;;;;;;5512116;26;19989;-46
2024/04/09 05:37:16;;;;;;;10.52;1.77;;;8.10;99.90;;;;;;5543611;26;20163;-43
2024/04/09 05:39:48;;;;;;;7.60;1.90;;;8.10;99.90;;;;;;5542529;26;19985;-43
2024/04/09 05:42:14;;;;;;;11.68;1.67;;;8.10;99.90;;;;;;5543827;25;20038;-46
2024/04/09 05:44:40;;;;;;;9.70;1.80;;;8.10;99.90;;;;;;5543552;25;19997;-46
2024/04/09 05:47:05;;;;;;;8.93;1.60;;;8.10;99.90;;;;;;5542954;26;20086;-46
2024/04/09 05:49:32;;;;;;;8.80;1.60;;;8.10;99.90;;;;;;5542225;26;19996;-47
2024/04/09 05:51:57;;;;;;;6.15;1.17;;;8.10;99.90;;;;;;5542813;25;19990;-47
2024/04/09 05:54:23;;;;;;;3.83;1.20;;;8.20;99.90;;;;;;5543358;26;20156;-47
2024/04/09 05:56:49;;;;;;;7.90;1.40;;;8.20;99.90;;;;;;5543622;26;19989;-48
2024/04/09 05:59:14;;;;;;;9.88;1.60;;;8.30;99.90;;;;;;5542557;26;20001;-46
2024/04/09 06:01:40;;;;;;;10.27;1.80;;;8.30;99.90;;;;;;5542531;26;19985;-43
2024/04/09 06:04:06;;;;;;;10.02;1.67;;;8.30;99.90;;;;;;5542922;26;20077;-44
2024/04/09 06:06:31;;;;;;;5.30;1.55;;;8.30;99.90;;;;;;5542767;26;19989;-45
2024/04/09 06:08:57;;;;;;;4.25;0.95;;;8.40;99.90;;;;;;5542952;26;20093;-46
2024/04/09 06:11:23;;;;;;;8.68;1.60;;;8.40;99.90;;;;;;5542098;26;20056;-46
2024/04/09 06:13:52;;;;;;;5.43;1.30;;;8.40;99.90;;;;;;5542777;25;20041;-44
2024/04/09 06:16:18;;;;;;;8.02;1.90;;;8.40;99.90;;;;;;5543150;25;19989;-45
2024/04/09 06:18:44;;;;;;;9.95;1.70;;;8.40;99.90;;;;;;5542827;26;20009;-43
2024/04/09 06:21:10;;;;;;;7.45;1.60;;;8.40;99.90;;;;;;5542901;26;20164;-43
2024/04/09 06:23:35;;;;;;;8.93;1.45;;;8.40;99.90;;;;;;5541794;26;19993;-43
2024/04/09 06:26:02;;;;;;;9.00;1.58;;;8.40;99.90;;;;;;5542195;26;19990;-44
2024/04/09 06:28:28;;;;;;;7.72;1.45;;;8.40;99.90;;;;;;5541655;26;19998;-43
2024/04/09 06:30:53;;;;;;;7.80;1.60;;;8.50;99.90;;;;;;5542413;26;19992;-43
2024/04/09 06:33:19;;;;;;;9.23;1.42;;;8.50;99.90;;;;;;5542707;26;20001;-44
2024/04/09 06:35:45;;;;;;;6.43;1.33;;;8.50;99.90;;;;;;5541844;26;19988;-44
2024/04/09 06:38:11;;;;;;;10.70;1.48;;;8.60;99.90;;;;;;5542619;25;19985;-46
2024/04/09 06:40:36;;;;;;;5.80;1.30;;;8.60;99.90;;;;;;5541378;26;20043;-43
2024/04/09 06:43:03;;;;;;;8.38;1.50;;;8.60;99.90;;;;;;5542173;26;20039;-46
2024/04/09 06:45:28;;;;;;;6.70;1.83;;;8.70;99.90;;;;;;5542098;25;19981;-47
2024/04/09 06:47:54;;;;;;;4.78;1.55;;;8.70;99.90;;;;;;5541215;26;19986;-44
2024/04/09 06:50:20;;;;;;;7.43;1.45;;;8.70;99.90;;;;;;5541599;26;19989;-43
2024/04/09 06:52:46;;;;;;;8.90;2.05;;;8.70;99.90;;;;;;5542345;25;20000;-43
2024/04/09 06:55:11;;;;;;;9.13;1.40;;;8.70;99.90;;;;;;5541356;26;19997;-44
2024/04/09 06:57:37;;;;;;;6.82;1.30;;;8.70;99.90;;;;;;5542121;26;19996;-43
2024/04/09 07:00:04;;;;;;;8.32;1.55;;;8.70;99.90;;;;;;5542062;25;20166;-44
2024/04/09 07:02:30;;;;;;;12.40;1.48;;;8.70;99.90;;;;;;5542402;25;19993;-45
2024/04/09 07:04:56;;;;;;;7.40;1.60;;;8.70;99.90;;;;;;5541935;25;20010;-45
2024/04/09 07:07:22;;;;;;;6.40;1.42;;;8.70;99.90;;;;;;5541361;26;20048;-47
2024/04/09 07:09:49;;;;;;;12.68;2.10;;;8.70;99.90;;;;;;5541748;25;20174;-46
2024/04/09 07:12:15;;;;;;;9.45;2.28;;;8.80;99.90;;;;;;5540380;26;20048;-46
2024/04/09 07:14:40;;;;;;;12.65;2.10;;;8.70;99.90;;;;;;5540794;25;20018;-46
2024/04/09 07:17:06;;;;;;;13.00;1.85;;;8.80;99.90;;;;;;5541571;26;19989;-43
2024/04/09 07:19:32;;;;;;;8.02;2.00;;;8.70;99.90;;;;;;5540933;26;20001;-45
2024/04/09 07:21:57;;;;;;;8.07;2.10;;;8.70;99.90;;;;;;5541473;26;20010;-44
2024/04/09 07:24:23;;;;;;;12.00;2.33;;;8.80;99.90;;;;;;5541555;26;19989;-47
2024/04/09 07:26:49;;;;;;;13.05;2.85;;;8.80;99.90;;;;;;5541580;26;19997;-44
2024/04/09 07:29:14;;;;;;;12.80;2.80;;;8.80;99.90;;;;;;5541658;26;20156;-44
2024/04/09 07:31:40;;;;;;;11.77;2.38;;;8.80;99.90;;;;;;5541412;26;20059;-46
2024/04/09 07:34:06;;;;;;;10.88;2.50;;;8.80;99.90;;;;;;5540528;26;19986;-46
2024/04/09 07:36:31;;;;;;;10.05;3.33;;;8.90;99.90;;;;;;5541086;26;20022;-44
2024/04/09 07:38:57;;;;;;;12.45;2.38;;;8.90;99.90;;;;;;5541223;25;19990;-45
2024/04/09 07:41:23;;;;;;;18.33;3.40;;;8.90;99.90;;;;;;5540471;26;19996;-46
2024/04/09 07:43:52;;;;;;;13.73;3.92;;;8.90;99.90;;;;;;5540117;25;19989;-45
2024/04/09 07:46:21;;;;;;;17.33;5.80;;;8.90;99.90;;;;;;5540676;25;20038;-44
2024/04/09 07:48:46;;;;;;;19.40;3.75;;;9.00;99.90;;;;;;5540512;26;19993;-44
2024/04/09 07:51:12;;;;;;;14.75;4.10;;;8.90;99.90;;;;;;5540924;25;19989;-45
2024/04/09 07:53:38;;;;;;;13.95;3.42;;;8.90;99.90;;;;;;5540909;25;19993;-48
2024/04/09 07:56:12;;;;;;;20.05;6.65;;;8.90;99.90;;;;;;5540889;25;19989;-46
2024/04/09 07:58:38;;;;;;;17.75;4.13;;;9.00;99.90;;;;;;5540401;26;20054;-47
2024/04/09 08:01:04;;;;;;;20.33;5.13;;;9.00;99.90;;;;;;5540062;26;19996;-44
2024/04/09 08:03:29;;;;;;;16.38;4.07;;;9.00;99.90;;;;;;5540787;25;20010;-44
2024/04/09 08:05:55;;;;;;;24.13;5.95;;;9.10;99.90;;;;;;5539501;26;20052;-48
2024/04/09 08:08:21;;;;;;;19.08;4.80;;;9.10;99.90;;;;;;5540990;26;20038;-46
2024/04/09 08:10:48;;;;;;;17.77;5.03;;;9.00;99.90;;;;;;5540415;26;19993;-44
2024/04/09 08:13:14;;;;;;;14.90;4.60;;;9.10;99.90;;;;;;5540561;25;19992;-44
2024/04/09 08:15:40;;;;;;;19.08;4.85;;;9.10;99.90;;;;;;5540487;25;19981;-45
2024/04/09 08:18:05;;;;;;;18.30;4.40;;;9.00;99.90;;;;;;5539675;26;19986;-44
2024/04/09 08:20:31;;;;;;;13.95;4.18;;;9.00;99.90;;;;;;5540858;25;20039;-45
2024/04/09 08:23:00;;;;;;;15.38;4.93;;;9.10;99.90;;;;;;5540387;26;20056;-44
2024/04/09 08:25:25;;;;;;;11.60;4.45;;;9.00;99.90;;;;;;5543125;25;20013;-44
2024/04/09 08:27:51;;;;;;;14.10;4.63;;;9.00;99.90;;;;;;5543912;26;20164;-44
2024/04/09 08:30:23;;;;;;;15.00;5.05;;;8.90;99.90;;;;;;5544280;26;19986;-45
2024/04/09 08:32:50;;;;;;;15.65;5.13;;;9.00;99.90;;;;;;5543675;25;20014;-48
2024/04/09 08:35:16;;;;;;;15.68;5.32;;;8.90;99.90;;;;;;5543550;26;19993;-45
2024/04/09 08:37:42;;;;;;;20.38;5.03;;;9.00;99.90;;;;;;5544032;25;20062;-45
2024/04/09 08:40:10;;;;;;;12.75;4.75;;;8.90;99.90;;;;;;5543996;25;20048;-47
2024/04/09 08:42:37;;;;;;;16.15;4.10;;;9.00;99.90;;;;;;5543687;25;19990;-44
2024/04/09 08:45:03;;;;;;;14.85;4.75;;;8.90;99.90;;;;;;5544088;25;19997;-46
2024/04/09 08:47:29;;;;;;;14.18;4.50;;;9.00;99.90;;;;;;5512306;26;19996;-43
2024/04/09 08:49:55;;;;;;;14.13;5.13;;;9.00;99.90;;;;;;5541804;26;19986;-43
2024/04/09 08:52:25;;;;;;;10.43;4.18;;;9.10;99.90;;;;;;5542324;26;19990;-45
2024/04/09 08:54:51;;;;;;;15.02;5.22;;;9.10;99.90;;;;;;5543423;25;20061;-45
2024/04/09 08:57:18;;;;;;;12.93;4.75;;;9.10;99.90;;;;;;5511900;26;20034;-44
2024/04/09 08:59:44;;;;;;;16.55;4.50;;;9.20;99.90;;;;;;5543403;25;20000;-44
2024/04/09 09:02:12;;;;;;;18.00;5.97;;;9.10;99.90;;;;;;5543595;25;20182;-43
2024/04/09 09:04:41;;;;;;;16.58;4.75;;;9.20;99.90;;;;;;5543627;25;19985;-44
2024/04/09 09:07:22;;;;;;;15.65;4.65;;;9.20;99.90;;;;;;5542738;26;19994;-47
2024/04/09 09:09:48;;;;;;;16.55;4.95;;;9.10;99.90;;;;;;5543042;25;20001;-46
2024/04/09 09:12:14;;;;;;;15.20;4.38;;;9.20;99.90;;;;;;5543491;26;19989;-44
2024/04/09 09:14:51;;;;;;;15.35;4.68;;;9.30;99.90;;;;;;5542248;26;20029;-47
2024/04/09 09:17:17;;;;;;;23.90;5.90;;;9.40;99.90;;;;;;5543067;25;20078;-47
2024/04/09 09:19:42;;;;;;;15.63;9.43;;;9.50;99.90;;;;;;5542636;26;19993;-46
2024/04/09 09:22:09;;;;;;;14.55;4.95;;;9.60;99.90;;;;;;5542934;26;19992;-47
2024/04/09 09:24:35;;;;;;;15.52;5.15;;;9.70;99.90;;;;;;5543381;25;19985;-47
2024/04/09 09:27:01;;;;;;;16.23;4.60;;;9.80;99.90;;;;;;5542818;25;20030;-47
2024/04/09 09:29:27;;;;;;;14.18;4.95;;;9.90;99.90;;;;;;5543214;25;19993;-48
2024/04/09 09:31:53;;;;;;;16.00;4.70;;;10.00;99.90;;;;;;5542950;25;20088;-47
2024/04/09 09:34:37;;;;;;;21.65;5.10;;;10.20;99.90;;;;;;5543279;26;20042;-46
2024/04/09 09:37:03;;;;;;;18.00;5.43;;;10.10;99.90;;;;;;5514905;26;19997;-47
2024/04/09 09:39:29;;;;;;;18.83;5.35;;;10.20;99.90;;;;;;5542812;25;19989;-47
2024/04/09 09:41:55;;;;;;;12.25;4.95;;;10.30;99.90;;;;;;5541576;26;19990;-46
2024/04/09 09:44:22;;;;;;;15.05;4.32;;;10.40;99.90;;;;;;5541863;26;20094;-45
2024/04/09 09:46:48;;;;;;;13.77;5.00;;;10.60;99.90;;;;;;5541084;26;19996;-45
2024/04/09 09:49:14;;;;;;;11.70;4.32;;;10.80;99.90;;;;;;5542173;26;19989;-47
2024/04/09 09:51:40;;;;;;;15.80;4.60;;;10.80;99.90;;;;;;5542360;25;20135;-47
2024/04/09 09:54:06;;;;;;;13.07;4.47;;;10.80;99.90;;;;;;5542326;26;20017;-47
2024/04/09 09:56:32;;;;;;;20.15;5.75;;;10.70;99.90;;;;;;5511330;26;19993;-47
2024/04/09 09:58:57;;;;;;;17.75;4.88;;;10.70;99.90;;;;;;5541744;26;19995;-47
2024/04/09 10:01:23;;;;;;;11.82;4.25;;;10.50;99.90;;;;;;5511250;25;19996;-47
2024/04/09 10:03:50;;;;;;;12.52;4.28;;;10.30;99.90;;;;;;5541244;26;19993;-46
2024/04/09 10:06:16;;;;;;;11.52;4.72;;;10.30;99.90;;;;;;5542776;25;20167;-48
2024/04/09 10:08:42;;;;;;;11.82;4.28;;;10.30;99.90;;;;;;5542291;26;20001;-48
2024/04/09 10:11:07;;;;;;;13.63;4.63;;;10.40;99.90;;;;;;5542379;25;19991;-46
2024/04/09 10:13:33;;;;;;;14.45;3.60;;;10.60;99.90;;;;;;5541256;26;19989;-47
2024/04/09 10:16:00;;;;;;;13.45;4.22;;;10.90;99.90;;;;;;5540810;26;19994;-46
2024/04/09 10:18:37;;;;;;;11.75;3.95;;;12.00;99.90;;;;;;5542510;25;20010;-47
2024/04/09 10:21:03;;;;;;;13.73;4.22;;;13.00;99.90;;;;;;5541388;26;19992;-48
2024/04/09 10:23:33;;;;;;;11.98;3.83;;;13.70;99.90;;;;;;5542135;26;19989;-43
2024/04/09 10:25:59;;;;;;;7.97;2.97;;;13.40;99.90;;;;;;5541206;25;19993;-46
2024/04/09 10:28:28;;;;;;;9.40;3.15;;;13.90;99.90;;;;;;5510791;26;19996;-45
2024/04/09 10:30:54;;;;;;;7.85;4.57;;;14.50;99.90;;;;;;5541911;25;19981;-47
2024/04/09 10:33:56;;;;;;;7.07;3.05;;;15.10;99.90;;;;;;5542181;26;20013;-47
2024/04/09 10:36:21;;;;;;;7.90;3.53;;;15.10;99.90;;;;;;5523460;25;19992;-47
2024/04/09 10:38:47;;;;;;;9.93;3.47;;;14.50;99.90;;;;;;5541783;26;20147;-48
2024/04/09 10:41:12;;;;;;;7.55;3.13;;;14.60;99.90;;;;;;5540634;26;20059;-47
2024/04/09 10:43:38;;;;;;;9.52;3.42;;;15.40;99.90;;;;;;5541129;26;19981;-46
2024/04/09 10:46:04;;;;;;;9.20;3.60;;;15.60;99.90;;;;;;5541239;26;19985;-47
2024/04/09 10:48:30;;;;;;;8.30;3.25;;;15.70;99.90;;;;;;5539690;26;19985;-43
2024/04/09 10:50:56;;;;;;;8.05;2.88;;;15.70;99.90;;;;;;5541711;26;19991;-44
2024/04/09 10:53:22;;;;;;;13.02;3.20;;;15.50;99.90;;;;;;5541426;25;19992;-44
2024/04/09 10:55:47;;;;;;;7.63;3.75;;;15.60;99.90;;;;;;5540176;26;19993;-47
2024/04/09 10:58:17;;;;;;;9.93;3.83;;;16.00;99.90;;;;;;5541379;26;20051;-48
2024/04/09 11:00:50;;;;;;;6.47;3.10;;;16.10;99.90;;;;;;5541250;25;19989;-49
2024/04/09 11:03:19;;;;;;;8.88;2.90;;;17.30;99.90;;;;;;5512132;26;20012;-48
2024/04/09 11:05:44;;;;;;;7.50;3.17;;;17.00;99.90;;;;;;5541465;25;19990;-48
2024/04/09 11:08:10;;;;;;;6.82;3.25;;;17.40;99.90;;;;;;5541358;26;20009;-48
2024/04/09 11:10:36;;;;;;;6.95;2.97;;;17.50;99.90;;;;;;5541122;25;19989;-48
2024/04/09 11:13:01;;;;;;;8.85;3.72;;;17.50;99.90;;;;;;5540434;26;20067;-49
2024/04/09 11:15:27;;;;;;;9.98;3.55;;;16.90;99.90;;;;;;5509507;26;19986;-46
2024/04/09 11:17:53;;;;;;;10.80;5.90;;;17.30;99.90;;;;;;5540387;26;19994;-48
2024/04/09 11:20:18;;;;;;;8.65;3.40;;;17.50;99.90;;;;;;5540874;26;19996;-47
2024/04/09 11:22:45;;;;;;;8.90;3.47;;;17.20;99.90;;;;;;5539775;26;19985;-48
2024/04/09 11:25:11;;;;;;;7.35;3.40;;;17.30;99.90;;;;;;5540019;25;19993;-48
2024/04/09 11:27:39;;;;;;;9.13;3.58;;;17.70;99.90;;;;;;5538909;26;19997;-48
2024/04/09 11:30:07;;;;;;;7.22;3.08;;;18.50;99.90;;;;;;5539191;26;20101;-47
2024/04/09 11:32:35;;;;;;;9.18;3.58;;;18.60;99.90;;;;;;5538476;26;19992;-45
2024/04/09 11:35:01;;;;;;;6.57;3.10;;;19.20;99.90;;;;;;5539544;25;19990;-47
2024/04/09 11:37:27;;;;;;;5.65;3.20;;;18.90;99.90;;;;;;5540152;25;19986;-49
2024/04/09 11:39:53;;;;;;;7.18;3.05;;;18.50;99.90;;;;;;5540927;26;20122;-47
2024/04/09 11:42:18;;;;;;;9.32;3.28;;;19.30;99.90;;;;;;5509491;26;19997;-46
2024/04/09 11:44:44;;;;;;;11.63;3.50;;;19.30;99.90;;;;;;5540546;25;19993;-48
2024/04/09 11:47:10;;;;;;;7.88;3.13;;;19.40;99.90;;;;;;5540961;26;19995;-48
2024/04/09 11:49:35;;;;;;;10.50;3.15;;;19.10;99.90;;;;;;5540426;26;20054;-48
2024/04/09 11:52:01;;;;;;;8.50;3.15;;;18.30;99.90;;;;;;5540207;26;20160;-48
2024/04/09 11:54:26;;;;;;;9.10;3.33;;;17.80;99.90;;;;;;5540201;26;19992;-48
2024/04/09 11:56:52;;;;;;;7.60;3.20;;;17.90;99.90;;;;;;5539955;26;19986;-45
2024/04/09 11:59:18;;;;;;;6.80;2.85;;;17.80;99.90;;;;;;5541033;26;19993;-47
2024/04/09 12:01:44;;;;;;;8.07;2.90;;;17.60;99.90;;;;;;5543372;25;19985;-48
2024/04/09 12:04:10;;;;;;;8.82;3.20;;;18.50;99.90;;;;;;5544035;25;20054;-49
2024/04/09 12:06:36;;;;;;;7.20;2.83;;;18.60;99.90;;;;;;5543854;25;20057;-47
2024/04/09 12:09:02;;;;;;;6.88;2.05;;;18.90;99.90;;;;;;5544109;26;19992;-47
2024/04/09 12:11:27;;;;;;;6.88;2.40;;;19.50;99.90;;;;;;5543772;25;20069;-46
2024/04/09 12:13:53;;;;;;;6.72;2.13;;;20.00;99.90;;;;;;5543640;26;19992;-49
2024/04/09 12:16:19;;;;;;;4.72;2.72;;;19.60;99.90;;;;;;5543610;26;19986;-49
2024/04/09 12:18:44;;;;;;;7.15;2.45;;;19.70;99.90;;;;;;5541530;26;20039;-49
2024/04/09 12:21:10;;;;;;;9.50;2.90;;;19.80;99.90;;;;;;5543439;26;20047;-49
2024/04/09 12:23:36;;;;;;;7.05;2.83;;;20.20;99.90;;;;;;5543448;26;20051;-50
2024/04/09 12:26:03;;;;;;;7.10;2.60;;;20.50;99.90;;;;;;5542924;26;20004;-49
2024/04/09 12:28:29;;;;;;;5.60;2.45;;;20.20;99.90;;;;;;5543516;25;20001;-49
2024/04/09 12:30:55;;;;;;;9.27;2.70;;;20.20;99.90;;;;;;5543981;25;19992;-49
2024/04/09 12:33:20;;;;;;;7.35;3.55;;;19.70;99.90;;;;;;5542501;26;20042;-47
2024/04/09 12:35:46;;;;;;;7.65;2.72;;;19.80;99.90;;;;;;5543394;26;20181;-49
2024/04/09 12:38:12;;;;;;;7.78;2.83;;;19.90;99.90;;;;;;5543923;26;20151;-49
2024/04/09 12:40:37;;;;;;;4.20;2.13;;;20.30;99.90;;;;;;5542468;26;19985;-49
2024/04/09 12:43:07;;;;;;;6.57;2.33;;;20.00;99.90;;;;;;5543195;26;19986;-49
2024/04/09 12:45:32;;;;;;;8.85;2.63;;;20.30;99.90;;;;;;5543543;26;19993;-50